Time;durP1;ratioP1;P1;durP2;ratioP2;P2;SDS_P1;SDS_P2;PMS_P1;PMS_P2;Temp;Humidity;BMP_temperature;BMP_pressure;BME280_temperature;BME280_humidity;BME280_pressure;Samples;Min_cycle;Max_cycle;Signal;HPM_P1;HPM_P2
2023/09/30 00:01:44;;;;;;;15.77;7.03;;;;;;;11.19;100.00;102404.91;5037797;28;20037;-73
2023/09/30 00:04:10;;;;;;;18.27;7.55;;;;;;;11.22;100.00;102398.41;5028664;28;20099;-72
2023/09/30 00:06:35;;;;;;;15.82;8.10;;;;;;;11.26;100.00;102401.88;5037502;28;20404;-72
2023/09/30 00:09:01;;;;;;;15.93;7.38;;;;;;;11.24;100.00;102400.13;5025341;28;20073;-72
2023/09/30 00:11:27;;;;;;;17.13;7.57;;;;;;;11.26;100.00;102400.03;5031580;28;20160;-72
2023/09/30 00:13:52;;;;;;;16.23;7.22;;;;;;;11.23;100.00;102401.03;5031466;28;20124;-72
2023/09/30 00:16:18;;;;;;;18.75;8.10;;;;;;;11.25;100.00;102411.91;5029224;28;20049;-72
2023/09/30 00:18:44;;;;;;;12.38;7.63;;;;;;;11.24;100.00;102415.59;5031242;28;20112;-73
2023/09/30 00:21:10;;;;;;;14.27;6.45;;;;;;;11.22;100.00;102406.59;5031089;28;20457;-72
2023/09/30 00:23:35;;;;;;;17.00;7.78;;;;;;;11.20;100.00;102409.41;5048139;28;20041;-72
2023/09/30 00:26:01;;;;;;;15.32;7.78;;;;;;;11.20;100.00;102414.84;5046424;28;20496;-72
2023/09/30 00:28:26;;;;;;;17.35;8.55;;;;;;;11.21;100.00;102416.59;5038110;28;20163;-73
2023/09/30 00:30:52;;;;;;;18.05;7.60;;;;;;;11.24;100.00;102410.13;5049388;28;20499;-72
2023/09/30 00:33:17;;;;;;;15.65;8.27;;;;;;;11.24;100.00;102401.97;5042149;28;20033;-73
2023/09/30 00:35:43;;;;;;;17.63;8.15;;;;;;;11.24;100.00;102397.38;5029580;28;20021;-72
2023/09/30 00:38:09;;;;;;;20.40;8.68;;;;;;;11.28;100.00;102425.34;5030689;28;20036;-72
2023/09/30 00:40:35;;;;;;;16.08;8.43;;;;;;;11.27;100.00;102429.03;5029637;28;20038;-72
2023/09/30 00:43:01;;;;;;;12.85;6.90;;;;;;;11.27;100.00;102433.59;5034297;28;20032;-72
2023/09/30 00:45:27;;;;;;;15.40;7.50;;;;;;;11.26;100.00;102430.00;5048610;28;20139;-72
2023/09/30 00:47:53;;;;;;;15.65;8.25;;;;;;;11.26;100.00;102420.94;5032731;28;20384;-72
2023/09/30 00:50:20;;;;;;;13.30;7.97;;;;;;;11.23;100.00;102425.56;5030699;28;20052;-72
2023/09/30 00:52:48;;;;;;;11.43;7.80;;;;;;;11.21;100.00;102413.88;5038416;28;20060;-73
2023/09/30 00:55:15;;;;;;;17.88;8.45;;;;;;;11.22;100.00;102418.38;5034289;28;20146;-72
2023/09/30 00:57:41;;;;;;;16.40;8.27;;;;;;;11.19;100.00;102424.00;5041609;28;20033;-72
2023/09/30 01:00:11;;;;;;;16.55;8.18;;;;;;;11.17;100.00;102428.59;5012620;28;20045;-73
2023/09/30 01:02:39;;;;;;;13.30;7.38;;;;;;;11.19;100.00;102429.44;5028547;28;20033;-71
2023/09/30 01:05:05;;;;;;;14.43;8.10;;;;;;;11.19;100.00;102425.78;5028860;28;20021;-72
2023/09/30 01:07:33;;;;;;;15.65;7.88;;;;;;;11.15;100.00;102422.38;5030190;28;20034;-72
2023/09/30 01:09:59;;;;;;;14.98;7.18;;;;;;;11.12;100.00;102429.81;5035320;28;20222;-72
2023/09/30 01:12:24;;;;;;;14.73;8.02;;;;;;;11.12;100.00;102427.97;5031813;28;20043;-72
2023/09/30 01:14:50;;;;;;;14.90;8.10;;;;;;;11.09;100.00;102427.22;5029371;28;20040;-72
2023/09/30 01:17:15;;;;;;;15.50;7.15;;;;;;;11.05;100.00;102451.03;5030226;28;20049;-73
2023/09/30 01:19:42;;;;;;;14.40;8.13;;;;;;;11.04;100.00;102443.78;5029909;28;20052;-72
2023/09/30 01:22:09;;;;;;;15.43;8.05;;;;;;;11.01;100.00;102440.34;5034513;28;20064;-72
2023/09/30 01:24:41;;;;;;;14.07;8.20;;;;;;;10.98;100.00;102460.44;5030187;28;20493;-72
2023/09/30 01:27:07;;;;;;;18.08;7.90;;;;;;;10.97;100.00;102461.41;5029525;28;20116;-72
2023/09/30 01:29:32;;;;;;;16.45;7.95;;;;;;;10.94;100.00;102465.13;5030935;28;20025;-73
2023/09/30 01:31:58;;;;;;;19.77;8.68;;;;;;;10.89;100.00;102471.75;5027850;28;20140;-72
2023/09/30 01:34:23;;;;;;;19.40;9.50;;;;;;;10.88;100.00;102478.19;5028904;28;20072;-73
2023/09/30 01:36:48;;;;;;;14.93;8.18;;;;;;;10.81;100.00;102477.56;5030109;28;20040;-72
2023/09/30 01:39:15;;;;;;;17.90;8.85;;;;;;;10.83;100.00;102477.50;5027859;28;20492;-72
2023/09/30 01:41:41;;;;;;;18.05;9.57;;;;;;;10.87;100.00;102468.25;5028994;28;20045;-72
2023/09/30 01:44:07;;;;;;;18.02;9.15;;;;;;;10.89;100.00;102453.59;5029581;28;20485;-73
2023/09/30 01:46:33;;;;;;;21.67;9.43;;;;;;;10.91;100.00;102450.78;5028309;28;20497;-72
2023/09/30 01:48:59;;;;;;;18.13;9.50;;;;;;;10.92;100.00;102441.69;5029288;28;20116;-72
2023/09/30 01:51:24;;;;;;;16.45;9.13;;;;;;;10.89;100.00;102441.81;5028128;28;20132;-73
2023/09/30 01:53:50;;;;;;;15.70;9.65;;;;;;;10.87;100.00;102444.63;5027325;28;20041;-72
2023/09/30 01:56:16;;;;;;;14.50;8.13;;;;;;;10.86;100.00;102439.22;5027674;28;20032;-72
2023/09/30 01:58:42;;;;;;;21.70;9.27;;;;;;;10.82;100.00;102441.25;5030185;28;20033;-71
2023/09/30 02:01:09;;;;;;;22.35;9.40;;;;;;;10.81;100.00;102442.16;5012004;28;20071;-72
2023/09/30 02:03:35;;;;;;;15.32;8.88;;;;;;;10.80;100.00;102443.13;5029555;28;20460;-73
2023/09/30 02:06:00;;;;;;;14.95;9.35;;;;;;;10.79;100.00;102438.66;5027181;28;20041;-72
2023/09/30 02:08:25;;;;;;;15.70;8.98;;;;;;;10.77;100.00;102440.59;5033295;28;20025;-72
2023/09/30 02:10:51;;;;;;;15.77;8.95;;;;;;;10.76;100.00;102448.78;5029123;28;20289;-73
2023/09/30 02:13:18;;;;;;;18.35;9.10;;;;;;;10.72;100.00;102454.41;5035975;28;20043;-72
2023/09/30 02:15:43;;;;;;;22.10;8.48;;;;;;;10.72;100.00;102458.94;5047400;28;20113;-73
2023/09/30 02:18:09;;;;;;;20.00;9.35;;;;;;;10.72;100.00;102465.28;5047725;28;20423;-72
2023/09/30 02:20:39;;;;;;;17.65;9.73;;;;;;;10.75;100.00;102464.25;5047886;28;20127;-72
2023/09/30 02:23:11;;;;;;;16.38;8.73;;;;;;;10.69;100.00;102459.97;5037986;28;20615;-73
2023/09/30 02:25:38;;;;;;;16.92;9.35;;;;;;;10.68;100.00;102458.22;5028978;28;20460;-72
2023/09/30 02:28:03;;;;;;;26.90;15.20;;;;;;;10.69;100.00;102450.94;5034464;28;20025;-73
2023/09/30 02:30:30;;;;;;;26.55;17.65;;;;;;;10.71;100.00;102444.44;5047756;28;20090;-73
2023/09/30 02:32:57;;;;;;;19.25;12.15;;;;;;;10.69;100.00;102446.38;5043429;28;20034;-73
2023/09/30 02:35:22;;;;;;;33.08;17.92;;;;;;;10.70;100.00;102442.69;5027255;28;20087;-72
2023/09/30 02:37:49;;;;;;;24.35;13.05;;;;;;;10.68;100.00;102439.19;5025502;28;20358;-72
2023/09/30 02:40:16;;;;;;;25.13;11.40;;;;;;;10.66;100.00;102453.78;5026199;28;20037;-73
2023/09/30 02:42:42;;;;;;;21.52;10.68;;;;;;;10.64;100.00;102461.16;5030544;28;20104;-73
2023/09/30 02:45:09;;;;;;;20.98;11.43;;;;;;;10.61;100.00;102459.44;5029019;28;20041;-72
2023/09/30 02:47:34;;;;;;;18.30;10.40;;;;;;;10.60;100.00;102444.09;5011696;28;20480;-73
2023/09/30 02:50:01;;;;;;;19.65;8.73;;;;;;;10.59;100.00;102444.16;5027129;28;20026;-73
2023/09/30 02:52:28;;;;;;;23.90;12.18;;;;;;;10.64;100.00;102447.56;5037275;28;20059;-72
2023/09/30 02:54:54;;;;;;;30.00;16.02;;;;;;;10.61;100.00;102442.25;5026329;28;20030;-73
2023/09/30 02:57:19;;;;;;;26.45;12.68;;;;;;;10.58;100.00;102437.81;5027794;28;20064;-72
2023/09/30 02:59:45;;;;;;;21.52;11.38;;;;;;;10.63;100.00;102440.31;5027678;28;20037;-73
2023/09/30 03:02:11;;;;;;;22.98;11.85;;;;;;;10.64;100.00;102447.56;5039260;28;20408;-72
2023/09/30 03:04:37;;;;;;;21.83;10.38;;;;;;;10.66;100.00;102440.19;5042940;28;20143;-72
2023/09/30 03:07:02;;;;;;;19.95;10.82;;;;;;;10.66;100.00;102448.34;5027940;28;20037;-72
2023/09/30 03:09:28;;;;;;;22.25;10.93;;;;;;;10.67;100.00;102455.56;5026234;28;20772;-72
2023/09/30 03:11:55;;;;;;;20.75;9.80;;;;;;;10.66;100.00;102451.94;5026915;28;20170;-72
2023/09/30 03:14:22;;;;;;;18.30;10.35;;;;;;;10.65;100.00;102454.75;5027341;28;20112;-73
2023/09/30 03:16:48;;;;;;;17.88;9.52;;;;;;;10.65;100.00;102457.47;5027150;28;20037;-73
2023/09/30 03:19:16;;;;;;;18.83;10.07;;;;;;;10.64;100.00;102456.59;5047701;28;20112;-73
2023/09/30 03:21:41;;;;;;;18.38;10.32;;;;;;;10.68;100.00;102457.34;5046050;28;20029;-72
2023/09/30 03:24:08;;;;;;;23.08;10.05;;;;;;;10.69;100.00;102443.66;5046611;28;20098;-73
2023/09/30 03:26:33;;;;;;;17.58;9.88;;;;;;;10.69;100.00;102427.31;5040060;28;20466;-73
2023/09/30 03:28:59;;;;;;;17.90;9.88;;;;;;;10.69;100.00;102429.16;5027399;28;20036;-72
2023/09/30 03:31:25;;;;;;;16.33;9.75;;;;;;;10.72;100.00;102427.19;5045209;28;20041;-73
2023/09/30 03:33:53;;;;;;;21.17;9.77;;;;;;;10.71;100.00;102417.22;5046766;28;20503;-73
2023/09/30 03:36:25;;;;;;;19.55;9.35;;;;;;;10.69;100.00;102427.31;5047403;28;20037;-72
2023/09/30 03:38:54;;;;;;;21.17;9.68;;;;;;;10.68;100.00;102421.97;5034057;28;20037;-73
2023/09/30 03:41:19;;;;;;;16.02;9.85;;;;;;;10.67;100.00;102428.34;5026568;28;20037;-73
2023/09/30 03:43:45;;;;;;;17.20;9.27;;;;;;;10.65;100.00;102425.69;5025630;28;20520;-72
2023/09/30 03:46:12;;;;;;;21.17;9.57;;;;;;;10.65;100.00;102441.16;5027338;28;20041;-72
2023/09/30 03:48:39;;;;;;;17.25;8.65;;;;;;;10.63;100.00;102441.22;5027883;28;20059;-73
2023/09/30 03:51:15;;;;;;;19.45;9.50;;;;;;;10.59;100.00;102439.59;5028045;28;20099;-73
2023/09/30 03:53:44;;;;;;;14.20;8.68;;;;;;;10.60;100.00;102444.09;5044182;28;20537;-73
2023/09/30 03:56:14;;;;;;;17.67;9.52;;;;;;;10.55;100.00;102439.81;5045190;28;20068;-72
2023/09/30 03:58:44;;;;;;;16.30;8.60;;;;;;;10.53;100.00;102430.81;5033789;28;20045;-73
2023/09/30 04:01:16;;;;;;;16.85;9.38;;;;;;;10.50;100.00;102431.00;5042267;28;20569;-72
2023/09/30 04:03:43;;;;;;;18.73;9.48;;;;;;;10.51;100.00;102428.19;5047115;28;20041;-73
2023/09/30 04:06:08;;;;;;;16.98;9.02;;;;;;;10.49;100.00;102440.97;5033406;28;20045;-73
2023/09/30 04:08:34;;;;;;;18.35;8.18;;;;;;;10.46;100.00;102442.00;5027359;28;20087;-73
2023/09/30 04:11:00;;;;;;;15.85;9.35;;;;;;;10.43;100.00;102435.81;5026374;28;20065;-73
2023/09/30 04:13:25;;;;;;;22.83;10.52;;;;;;;10.43;100.00;102435.81;5026661;28;20552;-72
2023/09/30 04:15:51;;;;;;;19.45;9.88;;;;;;;10.41;100.00;102440.47;5043929;28;20477;-73
2023/09/30 04:18:16;;;;;;;15.52;8.95;;;;;;;10.37;100.00;102447.88;5047107;28;20064;-73
2023/09/30 04:20:42;;;;;;;19.73;10.43;;;;;;;10.36;100.00;102440.69;5045708;28;20048;-73
2023/09/30 04:23:09;;;;;;;18.10;8.32;;;;;;;10.34;100.00;102431.69;5038567;28;20164;-72
2023/09/30 04:25:35;;;;;;;18.38;9.18;;;;;;;10.33;100.00;102424.47;5009752;28;20030;-72
2023/09/30 04:28:02;;;;;;;18.88;10.30;;;;;;;10.33;100.00;102431.75;5039075;28;20123;-72
2023/09/30 04:30:27;;;;;;;20.00;9.02;;;;;;;10.31;100.00;102434.56;5033490;28;20033;-73
2023/09/30 04:32:53;;;;;;;20.02;10.40;;;;;;;10.30;100.00;102437.34;5045510;28;20043;-72
2023/09/30 04:35:18;;;;;;;20.83;9.40;;;;;;;10.27;100.00;102443.81;5045633;28;20037;-72
2023/09/30 04:37:44;;;;;;;20.42;9.88;;;;;;;10.24;100.00;102438.50;5038811;28;20049;-72
2023/09/30 04:40:18;;;;;;;17.02;8.50;;;;;;;10.20;100.00;102436.84;5026650;28;20037;-72
2023/09/30 04:42:46;;;;;;;18.95;9.07;;;;;;;10.18;100.00;102447.78;5025911;28;20029;-72
2023/09/30 04:45:12;;;;;;;19.85;9.77;;;;;;;10.18;100.00;102444.19;5025265;28;20124;-73
2023/09/30 04:47:38;;;;;;;20.13;9.30;;;;;;;10.14;100.00;102448.88;5026245;28;20132;-73
2023/09/30 04:50:08;;;;;;;15.55;8.98;;;;;;;10.14;100.00;102454.31;5025540;28;20036;-72
2023/09/30 04:52:34;;;;;;;16.10;9.27;;;;;;;10.13;100.00;102448.97;5037088;28;20492;-72
2023/09/30 04:55:00;;;;;;;22.23;11.20;;;;;;;10.14;100.00;102446.16;5045970;28;20538;-72
2023/09/30 04:57:26;;;;;;;21.25;10.27;;;;;;;10.10;100.00;102466.28;5031992;28;20026;-73
2023/09/30 04:59:51;;;;;;;17.77;10.38;;;;;;;10.07;100.00;102462.81;5025876;28;20029;-73
2023/09/30 05:02:17;;;;;;;19.83;9.20;;;;;;;10.04;100.00;102458.41;5031171;28;20088;-72
2023/09/30 05:04:42;;;;;;;18.08;9.77;;;;;;;10.02;100.00;102465.72;5030357;28;20025;-72
2023/09/30 05:07:08;;;;;;;19.45;10.35;;;;;;;10.03;100.00;102466.66;5029107;28;20029;-72
2023/09/30 05:09:34;;;;;;;23.83;11.18;;;;;;;10.01;100.00;102466.69;5034049;28;20025;-72
2023/09/30 05:11:59;;;;;;;16.70;9.27;;;;;;;10.00;100.00;102472.19;5038766;28;20084;-73
2023/09/30 05:14:24;;;;;;;18.55;10.85;;;;;;;9.98;100.00;102472.28;5045703;28;20090;-73
2023/09/30 05:16:50;;;;;;;20.55;10.27;;;;;;;10.01;100.00;102472.13;5049979;28;20028;-72
2023/09/30 05:19:15;;;;;;;18.83;10.88;;;;;;;10.02;100.00;102462.13;5050115;28;20029;-72
2023/09/30 05:21:40;;;;;;;24.77;11.73;;;;;;;10.01;100.00;102455.81;5025996;28;20051;-72
2023/09/30 05:24:06;;;;;;;20.10;10.40;;;;;;;10.00;100.00;102467.66;5028558;28;20124;-72
2023/09/30 05:26:32;;;;;;;17.55;9.13;;;;;;;9.95;100.00;102461.53;5029356;28;20052;-73
2023/09/30 05:28:59;;;;;;;22.45;11.20;;;;;;;10.02;100.00;102473.00;5027850;28;20061;-73
2023/09/30 05:31:25;;;;;;;22.55;11.25;;;;;;;10.02;100.00;102473.00;5029931;28;20076;-73
2023/09/30 05:33:50;;;;;;;26.17;11.98;;;;;;;10.02;100.00;102479.31;5029605;28;20457;-72
2023/09/30 05:36:15;;;;;;;19.73;10.15;;;;;;;10.01;100.00;102473.97;5029601;28;20037;-72
2023/09/30 05:38:41;;;;;;;21.92;10.80;;;;;;;10.02;100.00;102473.88;5029474;28;20025;-72
2023/09/30 05:41:07;;;;;;;20.98;10.13;;;;;;;10.01;100.00;102477.56;5029756;28;20037;-73
2023/09/30 05:43:32;;;;;;;22.83;10.52;;;;;;;10.02;100.00;102479.31;5037453;28;20111;-73
2023/09/30 05:45:58;;;;;;;22.50;10.10;;;;;;;10.00;100.00;102475.81;5049397;28;20029;-72
2023/09/30 05:48:24;;;;;;;21.45;11.23;;;;;;;10.08;100.00;102492.69;5049474;28;20037;-72
2023/09/30 05:50:49;;;;;;;22.95;10.65;;;;;;;10.10;100.00;102493.47;5048954;28;20041;-72
2023/09/30 05:53:15;;;;;;;21.92;10.52;;;;;;;10.13;100.00;102496.06;5029270;28;20029;-72
2023/09/30 05:55:45;;;;;;;16.08;9.48;;;;;;;10.16;100.00;102486.88;5027723;28;20037;-72
2023/09/30 05:58:13;;;;;;;20.55;9.65;;;;;;;10.15;100.00;102488.72;5034067;28;20038;-72
2023/09/30 06:00:41;;;;;;;17.73;9.68;;;;;;;10.16;100.00;102493.19;5029456;28;20444;-72
2023/09/30 06:03:07;;;;;;;18.77;9.55;;;;;;;10.18;100.00;102496.75;5041159;28;20548;-73
2023/09/30 06:05:33;;;;;;;18.05;9.80;;;;;;;10.21;100.00;102493.91;5027114;28;20051;-72
2023/09/30 06:08:03;;;;;;;17.83;10.18;;;;;;;10.25;100.00;102496.50;5028325;28;20212;-72
2023/09/30 06:10:29;;;;;;;19.80;11.02;;;;;;;10.26;100.00;102491.00;5027012;28;20084;-73
2023/09/30 06:12:54;;;;;;;19.20;10.55;;;;;;;10.31;100.00;102497.13;5028206;28;20056;-72
2023/09/30 06:15:21;;;;;;;17.00;9.95;;;;;;;10.33;100.00;102484.31;5026986;28;20190;-72
2023/09/30 06:17:50;;;;;;;21.10;9.70;;;;;;;10.36;100.00;102489.63;5034149;28;20497;-72
2023/09/30 06:20:18;;;;;;;23.70;11.45;;;;;;;10.38;100.00;102482.28;5028519;28;20025;-72
2023/09/30 06:22:49;;;;;;;23.77;9.68;;;;;;;10.40;100.00;102488.56;5029332;28;20038;-72
2023/09/30 06:25:16;;;;;;;20.38;11.02;;;;;;;10.46;100.00;102477.38;5026805;28;20045;-72
2023/09/30 06:27:42;;;;;;;20.85;10.02;;;;;;;10.46;100.00;102479.22;5038157;28;20378;-72
2023/09/30 06:30:09;;;;;;;24.08;11.15;;;;;;;10.51;100.00;102485.34;5028527;28;20434;-72
2023/09/30 06:32:35;;;;;;;24.92;9.98;;;;;;;10.54;100.00;102482.47;5034917;28;20029;-72
2023/09/30 06:35:02;;;;;;;19.42;10.65;;;;;;;10.56;100.00;102486.00;5031535;28;20033;-73
2023/09/30 06:37:29;;;;;;;19.42;10.13;;;;;;;10.59;100.00;102485.00;5033639;28;20044;-73
2023/09/30 06:39:55;;;;;;;25.75;10.77;;;;;;;10.68;100.00;102493.63;5045023;28;20017;-73
2023/09/30 06:42:21;;;;;;;27.85;10.93;;;;;;;10.75;100.00;102490.59;5031595;28;20064;-72
2023/09/30 06:44:46;;;;;;;28.00;11.50;;;;;;;10.85;100.00;102497.38;5026423;28;20057;-72
2023/09/30 06:47:12;;;;;;;25.27;11.18;;;;;;;10.88;100.00;102491.78;5028065;28;20557;-72
2023/09/30 06:49:38;;;;;;;31.40;11.32;;;;;;;10.93;100.00;102504.22;5028605;28;20087;-72
2023/09/30 06:52:04;;;;;;;23.27;11.80;;;;;;;11.02;100.00;102512.91;5029408;28;20106;-72
2023/09/30 06:54:30;;;;;;;22.52;11.75;;;;;;;11.10;100.00;102514.31;5047232;28;20442;-72
2023/09/30 06:56:56;;;;;;;23.15;11.32;;;;;;;11.33;100.00;102512.31;5038001;28;20032;-72
2023/09/30 06:59:21;;;;;;;18.98;10.63;;;;;;;11.79;100.00;102520.91;5031203;28;20106;-72
2023/09/30 07:01:47;;;;;;;22.85;11.05;;;;;;;11.99;100.00;102531.75;5027768;28;20481;-71
2023/09/30 07:04:12;;;;;;;21.63;10.25;;;;;;;11.95;100.00;102538.31;5028267;28;20107;-72
2023/09/30 07:06:38;;;;;;;22.30;10.50;;;;;;;11.95;100.00;102541.03;5028553;28;20386;-72
2023/09/30 07:09:04;;;;;;;21.45;10.82;;;;;;;12.14;100.00;102532.78;5026307;28;20550;-71
2023/09/30 07:11:33;;;;;;;27.27;11.02;;;;;;;12.33;100.00;102541.78;5026095;28;20472;-71
2023/09/30 07:13:59;;;;;;;29.42;10.68;;;;;;;12.40;100.00;102540.50;5026143;28;20119;-72
2023/09/30 07:16:24;;;;;;;24.42;10.82;;;;;;;12.43;100.00;102540.31;5026686;28;20497;-72
2023/09/30 07:18:50;;;;;;;21.45;9.40;;;;;;;12.49;100.00;102537.25;5027023;28;20037;-72
2023/09/30 07:21:16;;;;;;;23.35;10.10;;;;;;;12.55;100.00;102536.06;5033671;28;20064;-72
2023/09/30 07:23:41;;;;;;;22.00;10.32;;;;;;;12.59;100.00;102539.50;5028939;28;20489;-71
2023/09/30 07:26:07;;;;;;;22.77;10.38;;;;;;;12.70;100.00;102546.16;5039226;28;20111;-72
2023/09/30 07:28:33;;;;;;;21.63;9.98;;;;;;;12.87;100.00;102564.38;5026872;28;20641;-72
2023/09/30 07:30:58;;;;;;;26.60;11.20;;;;;;;13.05;100.00;102575.22;5026915;28;20463;-71
2023/09/30 07:33:24;;;;;;;23.98;11.02;;;;;;;13.23;100.00;102577.84;5027374;28;20025;-72
2023/09/30 07:35:49;;;;;;;25.10;11.90;;;;;;;13.41;100.00;102581.41;5027636;28;20040;-71
2023/09/30 07:38:14;;;;;;;20.40;10.77;;;;;;;13.47;100.00;102592.00;5025923;28;20664;-72
2023/09/30 07:40:40;;;;;;;28.08;10.57;;;;;;;13.51;100.00;102592.72;5025715;28;20035;-72
2023/09/30 07:43:05;;;;;;;26.38;10.70;;;;;;;13.56;100.00;102600.66;5028192;28;20116;-72
2023/09/30 07:45:31;;;;;;;21.98;10.65;;;;;;;13.60;100.00;102594.03;5009019;28;20153;-71
2023/09/30 07:47:58;;;;;;;24.67;11.55;;;;;;;13.68;100.00;102589.03;5027808;28;20073;-72
2023/09/30 07:50:24;;;;;;;24.17;11.02;;;;;;;13.76;100.00;102578.53;5028012;28;20045;-73
2023/09/30 07:52:49;;;;;;;21.58;10.52;;;;;;;13.89;100.00;102585.00;5031850;28;20402;-73
2023/09/30 07:55:15;;;;;;;23.25;11.68;;;;;;;14.00;100.00;102579.81;5026973;28;20120;-72
2023/09/30 07:57:43;;;;;;;21.65;10.55;;;;;;;14.13;100.00;102577.25;5037719;28;20041;-72
2023/09/30 08:00:09;;;;;;;24.60;12.20;;;;;;;14.20;100.00;102580.47;5026604;28;20392;-73
2023/09/30 08:02:36;;;;;;;24.17;10.70;;;;;;;14.30;100.00;102574.34;5027325;28;20041;-72
2023/09/30 08:05:02;;;;;;;20.92;10.25;;;;;;;14.40;100.00;102582.00;5025540;28;20037;-72
2023/09/30 08:07:27;;;;;;;24.35;9.82;;;;;;;14.49;100.00;102581.47;5025292;28;20034;-73
2023/09/30 08:09:53;;;;;;;22.42;10.73;;;;;;;14.56;100.00;102577.41;5024970;28;20099;-73
2023/09/30 08:12:19;;;;;;;22.02;9.88;;;;;;;14.68;100.00;102579.34;5028391;28;20078;-72
2023/09/30 08:14:44;;;;;;;26.55;9.85;;;;;;;14.74;100.00;102569.91;5026340;28;20033;-72
2023/09/30 08:17:10;;;;;;;28.05;10.48;;;;;;;14.78;100.00;102571.44;5026747;28;20053;-73
2023/09/30 08:19:36;;;;;;;24.38;10.38;;;;;;;14.88;100.00;102566.31;5022758;28;20037;-72
2023/09/30 08:22:03;;;;;;;29.08;9.88;;;;;;;14.95;100.00;102567.66;5040546;28;20025;-73
2023/09/30 08:24:29;;;;;;;26.17;9.82;;;;;;;15.12;100.00;102570.22;5035881;28;20691;-73
2023/09/30 08:26:56;;;;;;;23.55;10.88;;;;;;;15.23;100.00;102566.78;5025967;28;20079;-74
2023/09/30 08:29:21;;;;;;;22.08;10.10;;;;;;;15.28;100.00;102562.75;5008044;28;20041;-73
2023/09/30 08:31:47;;;;;;;20.88;9.00;;;;;;;15.29;100.00;102561.78;5026736;28;20041;-73
2023/09/30 08:34:14;;;;;;;24.08;9.18;;;;;;;15.39;100.00;102562.06;5026982;28;20401;-73
2023/09/30 08:36:40;;;;;;;22.75;9.68;;;;;;;15.43;100.00;102555.38;5028129;28;20055;-73
2023/09/30 08:39:06;;;;;;;22.08;8.63;;;;;;;15.53;100.00;102555.69;5030374;28;20037;-73
2023/09/30 08:41:33;;;;;;;20.42;8.55;;;;;;;15.61;100.00;102549.66;5030126;28;20388;-72
2023/09/30 08:44:02;;;;;;;20.35;9.23;;;;;;;15.65;100.00;102554.88;5041610;28;20028;-72
2023/09/30 08:46:32;;;;;;;19.55;8.93;;;;;;;15.77;100.00;102551.31;5030634;28;20057;-73
2023/09/30 08:49:00;;;;;;;24.45;10.00;;;;;;;15.83;100.00;102544.53;5030790;28;20091;-73
2023/09/30 08:51:26;;;;;;;32.47;10.27;;;;;;;15.85;100.00;102549.91;5042949;28;20033;-72
2023/09/30 08:53:52;;;;;;;17.60;9.25;;;;;;;15.80;100.00;102545.59;5048029;28;20063;-73
2023/09/30 08:56:22;;;;;;;23.83;9.55;;;;;;;15.82;100.00;102554.63;5047135;28;20028;-73
2023/09/30 08:58:47;;;;;;;23.90;9.45;;;;;;;15.82;100.00;102551.88;5034560;28;20102;-73
2023/09/30 09:01:13;;;;;;;21.38;9.65;;;;;;;15.87;100.00;102547.97;5033605;28;20477;-73
2023/09/30 09:03:39;;;;;;;27.83;10.13;;;;;;;15.93;100.00;102547.53;5029801;28;20033;-72
2023/09/30 09:06:04;;;;;;;23.20;10.15;;;;;;;16.02;100.00;102564.25;5029773;28;20027;-73
2023/09/30 09:08:29;;;;;;;30.05;11.30;;;;;;;16.00;100.00;102569.00;5029718;28;20038;-73
2023/09/30 09:11:04;;;;;;;24.40;10.20;;;;;;;16.10;100.00;102576.59;5043621;28;20127;-73
2023/09/30 09:13:46;;;;;;;18.10;9.65;;;;;;;16.16;100.00;102584.41;5032924;28;20044;-73
2023/09/30 09:16:11;;;;;;;21.52;8.85;;;;;;;16.25;100.00;102583.78;5028294;28;20041;-72
2023/09/30 09:18:37;;;;;;;22.15;10.40;;;;;;;16.28;99.82;102584.47;5029621;28;20028;-73
2023/09/30 09:21:13;;;;;;;20.05;8.90;;;;;;;16.39;98.29;102571.84;5033897;28;20075;-73
2023/09/30 09:23:46;;;;;;;21.63;9.43;;;;;;;16.50;100.00;102578.31;5032403;28;20041;-73
2023/09/30 09:26:13;;;;;;;21.88;9.20;;;;;;;16.58;98.18;102591.53;5030341;28;20052;-73
2023/09/30 09:28:39;;;;;;;19.17;9.85;;;;;;;16.63;97.22;102597.59;5039723;28;20048;-72
2023/09/30 09:31:28;;;;;;;18.25;8.68;;;;;;;16.72;99.25;102601.59;5029630;28;20319;-73
2023/09/30 09:33:54;;;;;;;18.15;9.25;;;;;;;16.85;97.59;102615.38;5029502;28;20041;-74
2023/09/30 09:36:20;;;;;;;19.27;10.10;;;;;;;16.85;94.10;102619.00;5029511;28;20059;-72
2023/09/30 09:38:53;;;;;;;18.20;10.30;;;;;;;16.86;94.55;102612.50;5028217;28;20551;-74
2023/09/30 09:41:19;;;;;;;19.27;10.27;;;;;;;16.99;95.27;102612.53;5031380;28;20649;-73
2023/09/30 09:43:48;;;;;;;16.55;9.48;;;;;;;17.04;93.08;102615.81;5037284;28;20051;-73
2023/09/30 09:46:13;;;;;;;20.48;9.40;;;;;;;17.17;92.97;102611.19;5028656;28;20394;-73
2023/09/30 09:48:39;;;;;;;21.10;9.57;;;;;;;17.31;93.02;102612.94;5033421;28;20029;-72
2023/09/30 09:51:07;;;;;;;20.27;10.32;;;;;;;17.44;93.09;102613.81;5029638;28;20483;-74
2023/09/30 09:53:36;;;;;;;19.92;10.20;;;;;;;17.56;91.09;102612.03;5011507;28;20041;-74
2023/09/30 09:56:03;;;;;;;20.25;10.35;;;;;;;17.68;91.69;102615.75;5028636;28;20417;-73
2023/09/30 09:58:33;;;;;;;20.38;9.75;;;;;;;17.72;91.39;102620.91;5040218;28;20045;-74
2023/09/30 10:01:00;;;;;;;17.63;9.25;;;;;;;17.67;90.68;102614.84;5010620;28;20704;-74
2023/09/30 10:03:26;;;;;;;18.67;8.82;;;;;;;17.75;91.29;102622.56;5028825;28;20534;-73
2023/09/30 10:05:52;;;;;;;18.50;9.38;;;;;;;17.83;90.51;102622.91;5027577;28;20037;-73
2023/09/30 10:08:21;;;;;;;17.48;9.15;;;;;;;17.87;89.64;102627.19;5028478;28;20438;-74
2023/09/30 10:10:47;;;;;;;20.85;9.98;;;;;;;17.91;89.06;102636.09;5028107;28;20065;-73
2023/09/30 10:13:51;;;;;;;24.23;9.57;;;;;;;18.05;91.04;102631.31;5028872;28;20087;-74
2023/09/30 10:16:41;;;;;;;17.92;9.88;;;;;;;18.18;87.96;102641.38;5026821;28;20079;-73
2023/09/30 10:19:11;;;;;;;20.27;9.77;;;;;;;18.32;85.90;102639.31;5029268;28;20029;-72
2023/09/30 10:21:39;;;;;;;20.55;10.68;;;;;;;18.38;85.35;102645.38;5029092;28;20031;-74
2023/09/30 10:24:22;;;;;;;21.60;9.98;;;;;;;18.57;88.06;102634.69;5034269;28;20045;-73
2023/09/30 10:27:31;;;;;;;18.75;9.48;;;;;;;18.73;86.44;102624.22;5027754;28;20045;-73
2023/09/30 10:30:09;;;;;;;17.52;9.57;;;;;;;18.82;84.43;102614.34;5047390;28;20041;-71
2023/09/30 10:32:50;;;;;;;17.67;8.07;;;;;;;18.99;85.81;102613.91;5042353;28;20045;-71
2023/09/30 10:35:20;;;;;;;18.65;7.40;;;;;;;19.03;83.11;102607.13;5028191;28;20099;-70
2023/09/30 10:37:46;;;;;;;17.30;8.73;;;;;;;19.20;82.77;102596.59;5028215;28;20065;-71
2023/09/30 10:40:28;;;;;;;18.45;8.73;;;;;;;19.35;82.56;102593.50;5026722;28;20068;-71
2023/09/30 10:42:57;;;;;;;;;;;;;;;19.48;85.95;102598.88;5016777;28;20123;-71
2023/09/30 10:45:40;;;;;;;14.95;8.48;;;;;;;19.57;80.63;102595.34;5027869;28;19917;-72
2023/09/30 10:48:24;;;;;;;16.45;8.20;;;;;;;19.85;83.04;102582.03;5028440;28;20037;-71
2023/09/30 10:50:55;;;;;;;18.23;8.15;;;;;;;20.08;73.40;102586.47;5027839;28;20049;-71
2023/09/30 10:53:21;;;;;;;12.93;7.13;;;;;;;20.23;73.87;102577.88;5040309;28;20043;-73
2023/09/30 10:55:54;;;;;;;13.85;7.13;;;;;;;20.23;73.94;102577.88;5046852;28;20099;-72
2023/09/30 10:58:19;;;;;;;11.27;7.07;;;;;;;20.27;76.02;102577.50;5028869;28;20033;-71
2023/09/30 11:00:52;;;;;;;14.68;7.00;;;;;;;20.37;76.53;102567.38;5036773;28;20045;-71
2023/09/30 11:03:20;;;;;;;11.95;6.60;;;;;;;20.59;73.88;102560.03;5044129;28;20040;-72
2023/09/30 11:05:48;;;;;;;13.05;5.95;;;;;;;20.82;73.82;102569.06;5040662;28;20021;-72
2023/09/30 11:08:17;;;;;;;14.57;5.43;;;;;;;20.92;74.83;102567.22;5027416;28;20045;-71